sensor_id;sensor_type;location;lat;lon;timestamp;pressure;altitude;pressure_sealevel;temperature;humidity
17711;BME280;8975;57.718;12.134;2022-10-24T00:00:22;115940.22;;;-142.68;53.00
17711;BME280;8975;57.718;12.134;2022-10-24T00:02:48;115940.22;;;-142.68;53.09
17711;BME280;8975;57.718;12.134;2022-10-24T00:05:13;115940.22;;;-142.68;52.96
17711;BME280;8975;57.718;12.134;2022-10-24T00:07:40;115940.22;;;-142.68;53.16
17711;BME280;8975;57.718;12.134;2022-10-24T00:10:07;115940.22;;;-142.68;53.23
17711;BME280;8975;57.718;12.134;2022-10-24T00:12:33;115940.22;;;-142.68;53.32
17711;BME280;8975;57.718;12.134;2022-10-24T00:14:59;115940.22;;;-142.68;53.43
17711;BME280;8975;57.718;12.134;2022-10-24T00:17:24;115940.22;;;-142.68;52.92
17711;BME280;8975;57.718;12.134;2022-10-24T00:19:50;115940.22;;;-142.68;53.08
17711;BME280;8975;57.718;12.134;2022-10-24T00:22:18;115940.22;;;-142.68;53.04
17711;BME280;8975;57.718;12.134;2022-10-24T00:24:44;115940.22;;;-142.68;53.10
17711;BME280;8975;57.718;12.134;2022-10-24T00:27:09;115940.22;;;-142.68;52.86
17711;BME280;8975;57.718;12.134;2022-10-24T00:29:35;115940.22;;;-142.68;53.04
17711;BME280;8975;57.718;12.134;2022-10-24T00:32:00;115940.22;;;-142.68;52.99
17711;BME280;8975;57.718;12.134;2022-10-24T00:34:25;115940.22;;;-142.68;52.80
17711;BME280;8975;57.718;12.134;2022-10-24T00:36:51;115940.22;;;-142.68;53.02
17711;BME280;8975;57.718;12.134;2022-10-24T00:39:16;115940.22;;;-142.68;52.68
17711;BME280;8975;57.718;12.134;2022-10-24T00:41:42;115940.22;;;-142.68;52.59
17711;BME280;8975;57.718;12.134;2022-10-24T00:44:25;115940.22;;;-142.68;52.66
17711;BME280;8975;57.718;12.134;2022-10-24T00:47:05;115940.22;;;-142.68;52.81
17711;BME280;8975;57.718;12.134;2022-10-24T00:49:52;115940.22;;;-142.68;52.79
17711;BME280;8975;57.718;12.134;2022-10-24T00:52:27;115940.22;;;-142.68;52.69
17711;BME280;8975;57.718;12.134;2022-10-24T00:54:54;115940.22;;;-142.68;52.94
17711;BME280;8975;57.718;12.134;2022-10-24T00:57:34;115940.22;;;-142.68;52.88
17711;BME280;8975;57.718;12.134;2022-10-24T01:00:29;115940.22;;;-142.68;52.88
17711;BME280;8975;57.718;12.134;2022-10-24T01:02:53;115940.22;;;-142.68;53.17
17711;BME280;8975;57.718;12.134;2022-10-24T01:05:20;115940.22;;;-142.68;53.05
17711;BME280;8975;57.718;12.134;2022-10-24T01:08:09;115940.22;;;-142.68;52.88
17711;BME280;8975;57.718;12.134;2022-10-24T01:13:59;115940.22;;;-142.68;52.80
17711;BME280;8975;57.718;12.134;2022-10-24T01:16:33;115940.22;;;-142.68;52.65
17711;BME280;8975;57.718;12.134;2022-10-24T01:19:05;115940.22;;;-142.68;52.70
17711;BME280;8975;57.718;12.134;2022-10-24T01:21:36;115940.22;;;-142.68;52.63
17711;BME280;8975;57.718;12.134;2022-10-24T01:26:58;115940.22;;;-142.68;52.66
17711;BME280;8975;57.718;12.134;2022-10-24T01:37:35;115940.22;;;-142.68;52.67
17711;BME280;8975;57.718;12.134;2022-10-24T01:40:10;115940.22;;;-142.68;52.60
17711;BME280;8975;57.718;12.134;2022-10-24T01:42:38;115940.22;;;-142.68;52.81
17711;BME280;8975;57.718;12.134;2022-10-24T01:45:07;115940.22;;;-142.68;52.79
17711;BME280;8975;57.718;12.134;2022-10-24T01:47:49;115940.22;;;-142.68;52.69
17711;BME280;8975;57.718;12.134;2022-10-24T01:50:18;115940.22;;;-142.68;52.71
17711;BME280;8975;57.718;12.134;2022-10-24T01:52:45;115940.22;;;-142.68;52.37
17711;BME280;8975;57.718;12.134;2022-10-24T01:55:12;115940.22;;;-142.68;52.61
17711;BME280;8975;57.718;12.134;2022-10-24T01:57:37;115940.22;;;-142.68;52.35
17711;BME280;8975;57.718;12.134;2022-10-24T02:00:06;115940.22;;;-142.68;52.33
17711;BME280;8975;57.718;12.134;2022-10-24T02:02:37;115940.22;;;-142.68;52.31
17711;BME280;8975;57.718;12.134;2022-10-24T02:08:01;115940.22;;;-142.68;52.09
17711;BME280;8975;57.718;12.134;2022-10-24T02:10:49;115940.22;;;-142.68;52.12
17711;BME280;8975;57.718;12.134;2022-10-24T02:13:24;115940.22;;;-142.68;52.37
17711;BME280;8975;57.718;12.134;2022-10-24T02:15:54;115940.22;;;-142.68;52.23
17711;BME280;8975;57.718;12.134;2022-10-24T02:18:21;115940.22;;;-142.68;52.38
17711;BME280;8975;57.718;12.134;2022-10-24T02:20:54;115940.22;;;-142.68;52.42
17711;BME280;8975;57.718;12.134;2022-10-24T02:23:44;115940.22;;;-142.68;52.09
17711;BME280;8975;57.718;12.134;2022-10-24T02:26:20;115940.22;;;-142.68;52.40
17711;BME280;8975;57.718;12.134;2022-10-24T02:28:51;115940.22;;;-142.68;52.10
17711;BME280;8975;57.718;12.134;2022-10-24T02:31:19;115940.22;;;-142.68;52.22
17711;BME280;8975;57.718;12.134;2022-10-24T02:33:49;115940.22;;;-142.68;52.22
17711;BME280;8975;57.718;12.134;2022-10-24T02:36:18;115940.22;;;-142.68;52.06
17711;BME280;8975;57.718;12.134;2022-10-24T02:38:45;115940.22;;;-142.68;52.07
17711;BME280;8975;57.718;12.134;2022-10-24T02:41:17;115940.22;;;-142.68;52.16
17711;BME280;8975;57.718;12.134;2022-10-24T02:43:45;115940.22;;;-142.68;52.11
17711;BME280;8975;57.718;12.134;2022-10-24T02:46:12;115940.22;;;-142.68;51.93
17711;BME280;8975;57.718;12.134;2022-10-24T02:48:42;115940.22;;;-142.68;51.89
17711;BME280;8975;57.718;12.134;2022-10-24T02:51:09;115940.22;;;-142.68;51.59
17711;BME280;8975;57.718;12.134;2022-10-24T02:53:35;115940.22;;;-142.68;51.78
17711;BME280;8975;57.718;12.134;2022-10-24T02:56:02;115940.22;;;-142.68;51.64
17711;BME280;8975;57.718;12.134;2022-10-24T02:58:27;115940.22;;;-142.68;51.78
17711;BME280;8975;57.718;12.134;2022-10-24T03:00:53;115940.22;;;-142.68;51.98
17711;BME280;8975;57.718;12.134;2022-10-24T03:03:18;115940.22;;;-142.68;51.77
17711;BME280;8975;57.718;12.134;2022-10-24T03:05:43;115940.22;;;-142.68;51.83
17711;BME280;8975;57.718;12.134;2022-10-24T03:08:10;115940.22;;;-142.68;51.58
17711;BME280;8975;57.718;12.134;2022-10-24T03:10:35;115940.22;;;-142.68;51.86
17711;BME280;8975;57.718;12.134;2022-10-24T03:13:01;115940.22;;;-142.68;51.51
17711;BME280;8975;57.718;12.134;2022-10-24T03:15:27;115940.22;;;-142.68;51.40
17711;BME280;8975;57.718;12.134;2022-10-24T03:17:53;115940.22;;;-142.68;51.86
17711;BME280;8975;57.718;12.134;2022-10-24T03:20:18;115940.22;;;-142.68;51.75
17711;BME280;8975;57.718;12.134;2022-10-24T03:22:44;115940.22;;;-142.68;51.98
17711;BME280;8975;57.718;12.134;2022-10-24T03:25:09;115940.22;;;-142.68;51.67
17711;BME280;8975;57.718;12.134;2022-10-24T03:27:36;115940.22;;;-142.68;51.57
17711;BME280;8975;57.718;12.134;2022-10-24T03:30:02;115940.22;;;-142.68;51.71
17711;BME280;8975;57.718;12.134;2022-10-24T03:32:28;115940.22;;;-142.68;51.85
17711;BME280;8975;57.718;12.134;2022-10-24T03:34:53;115940.22;;;-142.68;51.52
17711;BME280;8975;57.718;12.134;2022-10-24T03:37:19;115940.22;;;-142.68;51.47
17711;BME280;8975;57.718;12.134;2022-10-24T03:39:44;115940.22;;;-142.68;52.01
17711;BME280;8975;57.718;12.134;2022-10-24T03:42:10;115940.22;;;-142.68;51.83
17711;BME280;8975;57.718;12.134;2022-10-24T03:44:36;115940.22;;;-142.68;51.83
17711;BME280;8975;57.718;12.134;2022-10-24T03:47:01;115940.22;;;-142.68;51.75
17711;BME280;8975;57.718;12.134;2022-10-24T03:49:26;115940.22;;;-142.68;52.18
17711;BME280;8975;57.718;12.134;2022-10-24T03:51:52;115940.22;;;-142.68;52.15
17711;BME280;8975;57.718;12.134;2022-10-24T03:54:17;115940.22;;;-142.68;52.14
17711;BME280;8975;57.718;12.134;2022-10-24T03:56:43;115940.22;;;-142.68;51.99
17711;BME280;8975;57.718;12.134;2022-10-24T03:59:09;115940.22;;;-142.68;52.76
17711;BME280;8975;57.718;12.134;2022-10-24T04:01:34;115940.22;;;-142.68;52.56
17711;BME280;8975;57.718;12.134;2022-10-24T04:04:00;115940.22;;;-142.68;52.20
17711;BME280;8975;57.718;12.134;2022-10-24T04:06:25;115940.22;;;-142.68;51.98
17711;BME280;8975;57.718;12.134;2022-10-24T04:08:51;115940.22;;;-142.68;52.06
17711;BME280;8975;57.718;12.134;2022-10-24T04:11:16;115940.22;;;-142.68;52.27
17711;BME280;8975;57.718;12.134;2022-10-24T04:13:41;115940.22;;;-142.68;51.99
17711;BME280;8975;57.718;12.134;2022-10-24T04:16:07;115940.22;;;-142.68;51.92
17711;BME280;8975;57.718;12.134;2022-10-24T04:18:33;115940.22;;;-142.68;51.77
17711;BME280;8975;57.718;12.134;2022-10-24T04:20:58;115940.22;;;-142.68;52.15
17711;BME280;8975;57.718;12.134;2022-10-24T04:23:24;115940.22;;;-142.68;51.72
17711;BME280;8975;57.718;12.134;2022-10-24T04:25:51;115940.22;;;-142.68;51.95
17711;BME280;8975;57.718;12.134;2022-10-24T04:28:17;115940.22;;;-142.68;51.81
17711;BME280;8975;57.718;12.134;2022-10-24T04:30:42;115940.22;;;-142.68;52.25
17711;BME280;8975;57.718;12.134;2022-10-24T04:33:08;115940.22;;;-142.68;52.10
17711;BME280;8975;57.718;12.134;2022-10-24T04:35:33;115940.22;;;-142.68;52.03
17711;BME280;8975;57.718;12.134;2022-10-24T04:37:59;115940.22;;;-142.68;52.10
17711;BME280;8975;57.718;12.134;2022-10-24T04:40:24;115940.22;;;-142.68;51.98
17711;BME280;8975;57.718;12.134;2022-10-24T04:42:50;115940.22;;;-142.68;52.08
17711;BME280;8975;57.718;12.134;2022-10-24T04:45:15;115940.22;;;-142.68;52.03
17711;BME280;8975;57.718;12.134;2022-10-24T04:47:41;115940.22;;;-142.68;52.07
17711;BME280;8975;57.718;12.134;2022-10-24T04:50:07;115940.22;;;-142.68;51.89
17711;BME280;8975;57.718;12.134;2022-10-24T04:52:32;115940.22;;;-142.68;51.94
17711;BME280;8975;57.718;12.134;2022-10-24T04:54:58;115940.22;;;-142.68;51.97
17711;BME280;8975;57.718;12.134;2022-10-24T04:57:23;115940.22;;;-142.68;51.93
17711;BME280;8975;57.718;12.134;2022-10-24T04:59:48;115940.22;;;-142.68;52.00
17711;BME280;8975;57.718;12.134;2022-10-24T05:02:14;115940.22;;;-142.68;51.85
17711;BME280;8975;57.718;12.134;2022-10-24T05:04:39;115940.22;;;-142.68;52.21
17711;BME280;8975;57.718;12.134;2022-10-24T05:07:05;115940.22;;;-142.68;52.67
17711;BME280;8975;57.718;12.134;2022-10-24T05:09:30;115940.22;;;-142.68;52.76
17711;BME280;8975;57.718;12.134;2022-10-24T05:11:56;115940.22;;;-142.68;52.69
17711;BME280;8975;57.718;12.134;2022-10-24T05:14:22;115940.22;;;-142.68;53.13
17711;BME280;8975;57.718;12.134;2022-10-24T05:16:47;115940.22;;;-142.68;53.30
17711;BME280;8975;57.718;12.134;2022-10-24T05:19:14;115940.22;;;-142.68;53.42
17711;BME280;8975;57.718;12.134;2022-10-24T05:21:41;115940.22;;;-142.68;53.28
17711;BME280;8975;57.718;12.134;2022-10-24T05:24:06;115940.22;;;-142.68;53.06
17711;BME280;8975;57.718;12.134;2022-10-24T05:26:32;115940.22;;;-142.68;52.97
17711;BME280;8975;57.718;12.134;2022-10-24T05:28:57;115940.22;;;-142.68;53.15
17711;BME280;8975;57.718;12.134;2022-10-24T05:31:22;115940.22;;;-142.68;53.03
17711;BME280;8975;57.718;12.134;2022-10-24T05:33:48;115940.22;;;-142.68;53.24
17711;BME280;8975;57.718;12.134;2022-10-24T05:36:13;115940.22;;;-142.68;52.97
17711;BME280;8975;57.718;12.134;2022-10-24T05:38:39;115940.22;;;-142.68;53.13
17711;BME280;8975;57.718;12.134;2022-10-24T05:41:04;115940.22;;;-142.68;52.98
17711;BME280;8975;57.718;12.134;2022-10-24T05:43:29;115940.22;;;-142.68;53.22
17711;BME280;8975;57.718;12.134;2022-10-24T05:45:55;115940.22;;;-142.68;53.25
17711;BME280;8975;57.718;12.134;2022-10-24T05:48:20;115940.22;;;-142.68;53.25
17711;BME280;8975;57.718;12.134;2022-10-24T05:50:46;115940.22;;;-142.68;53.23
17711;BME280;8975;57.718;12.134;2022-10-24T05:53:11;115940.22;;;-142.68;53.12
17711;BME280;8975;57.718;12.134;2022-10-24T05:55:37;115940.22;;;-142.68;52.99
17711;BME280;8975;57.718;12.134;2022-10-24T05:58:03;115940.22;;;-142.68;53.08
17711;BME280;8975;57.718;12.134;2022-10-24T06:00:28;115940.22;;;-142.68;53.22
17711;BME280;8975;57.718;12.134;2022-10-24T06:02:54;115940.22;;;-142.68;53.21
17711;BME280;8975;57.718;12.134;2022-10-24T06:05:20;115940.22;;;-142.68;53.27
17711;BME280;8975;57.718;12.134;2022-10-24T06:07:45;115940.22;;;-142.68;52.78
17711;BME280;8975;57.718;12.134;2022-10-24T06:10:11;115940.22;;;-142.68;52.60
17711;BME280;8975;57.718;12.134;2022-10-24T06:12:38;115940.22;;;-142.68;52.71
17711;BME280;8975;57.718;12.134;2022-10-24T06:15:06;115940.22;;;-142.68;52.25
17711;BME280;8975;57.718;12.134;2022-10-24T06:17:32;115940.22;;;-142.68;52.97
17711;BME280;8975;57.718;12.134;2022-10-24T06:19:57;115940.22;;;-142.68;52.56
17711;BME280;8975;57.718;12.134;2022-10-24T06:22:23;115940.22;;;-142.68;52.88
17711;BME280;8975;57.718;12.134;2022-10-24T06:24:49;115940.22;;;-142.68;52.98
17711;BME280;8975;57.718;12.134;2022-10-24T06:27:15;115940.22;;;-142.68;52.84
17711;BME280;8975;57.718;12.134;2022-10-24T06:29:41;115940.22;;;-142.68;52.58
17711;BME280;8975;57.718;12.134;2022-10-24T06:32:06;115940.22;;;-142.68;52.46
17711;BME280;8975;57.718;12.134;2022-10-24T06:34:32;115940.22;;;-142.68;52.84
17711;BME280;8975;57.718;12.134;2022-10-24T06:36:57;115940.22;;;-142.68;52.61
17711;BME280;8975;57.718;12.134;2022-10-24T06:39:23;115940.22;;;-142.68;52.63
17711;BME280;8975;57.718;12.134;2022-10-24T06:41:48;115940.22;;;-142.68;52.56
17711;BME280;8975;57.718;12.134;2022-10-24T06:44:14;115940.22;;;-142.68;52.43
17711;BME280;8975;57.718;12.134;2022-10-24T06:46:39;115940.22;;;-142.68;52.77
17711;BME280;8975;57.718;12.134;2022-10-24T06:49:04;115940.22;;;-142.68;52.51
17711;BME280;8975;57.718;12.134;2022-10-24T06:51:30;115940.22;;;-142.68;52.85
17711;BME280;8975;57.718;12.134;2022-10-24T06:53:57;115940.22;;;-142.68;52.71
17711;BME280;8975;57.718;12.134;2022-10-24T06:56:22;115940.22;;;-142.68;52.72
17711;BME280;8975;57.718;12.134;2022-10-24T06:58:48;115940.22;;;-142.68;52.36
17711;BME280;8975;57.718;12.134;2022-10-24T07:01:19;115940.22;;;-142.68;52.92
17711;BME280;8975;57.718;12.134;2022-10-24T07:03:45;115940.22;;;-142.68;52.97
17711;BME280;8975;57.718;12.134;2022-10-24T07:06:19;115940.22;;;-142.68;52.79
17711;BME280;8975;57.718;12.134;2022-10-24T07:08:46;115940.22;;;-142.68;53.42
17711;BME280;8975;57.718;12.134;2022-10-24T07:11:12;115940.22;;;-142.68;53.27
17711;BME280;8975;57.718;12.134;2022-10-24T07:13:37;115940.22;;;-142.68;53.39
17711;BME280;8975;57.718;12.134;2022-10-24T07:16:04;115940.22;;;-142.68;53.47
17711;BME280;8975;57.718;12.134;2022-10-24T07:18:29;115940.22;;;-142.68;53.35
17711;BME280;8975;57.718;12.134;2022-10-24T07:21:00;115940.22;;;-142.68;53.28
17711;BME280;8975;57.718;12.134;2022-10-24T07:23:26;115940.22;;;-142.68;54.10
17711;BME280;8975;57.718;12.134;2022-10-24T07:25:51;115940.22;;;-142.68;53.78
17711;BME280;8975;57.718;12.134;2022-10-24T07:28:17;115940.22;;;-142.68;53.70
17711;BME280;8975;57.718;12.134;2022-10-24T07:30:43;115940.22;;;-142.68;53.46
17711;BME280;8975;57.718;12.134;2022-10-24T07:33:08;115940.22;;;-142.68;53.05
17711;BME280;8975;57.718;12.134;2022-10-24T07:35:34;115940.22;;;-142.68;53.35
17711;BME280;8975;57.718;12.134;2022-10-24T07:37:59;115940.22;;;-142.68;53.26
17711;BME280;8975;57.718;12.134;2022-10-24T07:40:24;115940.22;;;-142.68;53.71
17711;BME280;8975;57.718;12.134;2022-10-24T07:42:50;115940.22;;;-142.68;53.21
17711;BME280;8975;57.718;12.134;2022-10-24T07:45:15;115940.22;;;-142.68;54.08
17711;BME280;8975;57.718;12.134;2022-10-24T07:47:41;115940.22;;;-142.68;53.84
17711;BME280;8975;57.718;12.134;2022-10-24T07:50:07;115940.22;;;-142.68;53.23
17711;BME280;8975;57.718;12.134;2022-10-24T07:52:32;115940.22;;;-142.68;53.47
17711;BME280;8975;57.718;12.134;2022-10-24T07:54:57;115940.22;;;-142.68;53.49
17711;BME280;8975;57.718;12.134;2022-10-24T07:57:23;115940.22;;;-142.68;53.67
17711;BME280;8975;57.718;12.134;2022-10-24T07:59:49;115940.22;;;-142.68;53.50
17711;BME280;8975;57.718;12.134;2022-10-24T08:02:16;115940.22;;;-142.68;53.52
17711;BME280;8975;57.718;12.134;2022-10-24T08:04:41;115940.22;;;-142.68;53.38
17711;BME280;8975;57.718;12.134;2022-10-24T08:07:08;115940.22;;;-142.68;53.82
17711;BME280;8975;57.718;12.134;2022-10-24T08:09:45;115940.22;;;-142.68;53.45
17711;BME280;8975;57.718;12.134;2022-10-24T08:12:11;115940.22;;;-142.68;53.46
17711;BME280;8975;57.718;12.134;2022-10-24T08:14:37;115940.22;;;-142.68;53.70
17711;BME280;8975;57.718;12.134;2022-10-24T08:17:04;115940.22;;;-142.68;53.76
17711;BME280;8975;57.718;12.134;2022-10-24T08:19:30;115940.22;;;-142.68;54.00
17711;BME280;8975;57.718;12.134;2022-10-24T08:21:56;115940.22;;;-142.68;53.73
17711;BME280;8975;57.718;12.134;2022-10-24T08:24:21;115940.22;;;-142.68;53.63
17711;BME280;8975;57.718;12.134;2022-10-24T08:26:47;115940.22;;;-142.68;53.37
17711;BME280;8975;57.718;12.134;2022-10-24T08:29:13;115940.22;;;-142.68;54.14
17711;BME280;8975;57.718;12.134;2022-10-24T08:31:39;115940.22;;;-142.68;53.98
17711;BME280;8975;57.718;12.134;2022-10-24T08:34:05;115940.22;;;-142.68;54.46
17711;BME280;8975;57.718;12.134;2022-10-24T08:36:33;115940.22;;;-142.68;54.28
17711;BME280;8975;57.718;12.134;2022-10-24T08:38:59;115940.22;;;-142.68;54.28
17711;BME280;8975;57.718;12.134;2022-10-24T08:43:55;115940.22;;;-142.68;54.63
17711;BME280;8975;57.718;12.134;2022-10-24T08:46:44;115940.22;;;-142.68;54.18
17711;BME280;8975;57.718;12.134;2022-10-24T08:49:22;115940.22;;;-142.68;53.83
17711;BME280;8975;57.718;12.134;2022-10-24T08:52:00;115940.22;;;-142.68;53.63
17711;BME280;8975;57.718;12.134;2022-10-24T08:54:38;115940.22;;;-142.68;53.89
17711;BME280;8975;57.718;12.134;2022-10-24T08:57:06;115940.22;;;-142.68;54.07
17711;BME280;8975;57.718;12.134;2022-10-24T08:59:36;115940.22;;;-142.68;54.28
17711;BME280;8975;57.718;12.134;2022-10-24T09:02:26;115940.22;;;-142.68;54.02
17711;BME280;8975;57.718;12.134;2022-10-24T09:04:57;115940.22;;;-142.68;54.17
17711;BME280;8975;57.718;12.134;2022-10-24T09:07:23;115940.22;;;-142.68;53.80
17711;BME280;8975;57.718;12.134;2022-10-24T09:10:04;115940.22;;;-142.68;54.04
17711;BME280;8975;57.718;12.134;2022-10-24T09:12:32;115940.22;;;-142.68;54.07
17711;BME280;8975;57.718;12.134;2022-10-24T09:14:59;115940.22;;;-142.68;53.79
17711;BME280;8975;57.718;12.134;2022-10-24T09:17:33;115940.22;;;-142.68;53.92
17711;BME280;8975;57.718;12.134;2022-10-24T09:22:30;115940.22;;;-142.68;53.89
17711;BME280;8975;57.718;12.134;2022-10-24T09:25:07;115940.22;;;-142.68;54.47
17711;BME280;8975;57.718;12.134;2022-10-24T09:27:38;115940.22;;;-142.68;54.11
17711;BME280;8975;57.718;12.134;2022-10-24T09:30:07;115940.22;;;-142.68;54.00
17711;BME280;8975;57.718;12.134;2022-10-24T09:32:40;115940.22;;;-142.68;53.88
17711;BME280;8975;57.718;12.134;2022-10-24T09:35:11;115940.22;;;-142.68;54.39
17711;BME280;8975;57.718;12.134;2022-10-24T09:37:42;115940.22;;;-142.68;54.17
17711;BME280;8975;57.718;12.134;2022-10-24T09:40:25;115940.22;;;-142.68;54.25
17711;BME280;8975;57.718;12.134;2022-10-24T09:47:57;115940.22;;;-142.68;53.85
17711;BME280;8975;57.718;12.134;2022-10-24T09:50:24;115940.22;;;-142.68;54.68
17711;BME280;8975;57.718;12.134;2022-10-24T09:52:53;115940.22;;;-142.68;54.76
17711;BME280;8975;57.718;12.134;2022-10-24T09:55:23;115940.22;;;-142.68;54.84
17711;BME280;8975;57.718;12.134;2022-10-24T09:57:58;115940.22;;;-142.68;54.31
17711;BME280;8975;57.718;12.134;2022-10-24T10:00:33;115940.22;;;-142.68;54.54
17711;BME280;8975;57.718;12.134;2022-10-24T10:03:03;115940.22;;;-142.68;54.44
17711;BME280;8975;57.718;12.134;2022-10-24T10:05:42;115940.22;;;-142.68;54.46
17711;BME280;8975;57.718;12.134;2022-10-24T10:08:11;115940.22;;;-142.68;54.60
17711;BME280;8975;57.718;12.134;2022-10-24T10:10:36;115940.22;;;-142.68;54.54
17711;BME280;8975;57.718;12.134;2022-10-24T10:15:59;115940.22;;;-142.68;54.40
17711;BME280;8975;57.718;12.134;2022-10-24T10:21:12;115940.22;;;-142.68;54.39
17711;BME280;8975;57.718;12.134;2022-10-24T10:26:27;115940.22;;;-142.68;54.57
17711;BME280;8975;57.718;12.134;2022-10-24T10:29:20;115940.22;;;-142.68;54.57
17711;BME280;8975;57.718;12.134;2022-10-24T10:31:48;115940.22;;;-142.68;54.35
17711;BME280;8975;57.718;12.134;2022-10-24T10:37:28;115940.22;;;-142.68;54.44
17711;BME280;8975;57.718;12.134;2022-10-24T10:45:21;115940.22;;;-142.68;54.58
17711;BME280;8975;57.718;12.134;2022-10-24T10:48:16;115940.22;;;-142.68;54.41
17711;BME280;8975;57.718;12.134;2022-10-24T10:58:41;115940.22;;;-142.68;55.39
17711;BME280;8975;57.718;12.134;2022-10-24T11:01:32;115940.22;;;-142.68;55.60
17711;BME280;8975;57.718;12.134;2022-10-24T11:09:32;115940.22;;;-142.68;55.54
17711;BME280;8975;57.718;12.134;2022-10-24T11:12:10;115940.22;;;-142.68;55.73
17711;BME280;8975;57.718;12.134;2022-10-24T11:14:41;115940.22;;;-142.68;55.56
17711;BME280;8975;57.718;12.134;2022-10-24T11:17:14;115940.22;;;-142.68;55.63
17711;BME280;8975;57.718;12.134;2022-10-24T11:20:13;115940.22;;;-142.68;55.33
17711;BME280;8975;57.718;12.134;2022-10-24T11:22:48;115940.22;;;-142.68;55.94
17711;BME280;8975;57.718;12.134;2022-10-24T11:28:06;115940.22;;;-142.68;55.80
17711;BME280;8975;57.718;12.134;2022-10-24T11:33:13;115940.22;;;-142.68;56.59
17711;BME280;8975;57.718;12.134;2022-10-24T11:35:50;115940.22;;;-142.68;56.35
17711;BME280;8975;57.718;12.134;2022-10-24T11:38:19;115940.22;;;-142.68;56.36
17711;BME280;8975;57.718;12.134;2022-10-24T11:40:51;115940.22;;;-142.68;56.06
17711;BME280;8975;57.718;12.134;2022-10-24T11:43:25;115940.22;;;-142.68;55.98
17711;BME280;8975;57.718;12.134;2022-10-24T11:46:15;115940.22;;;-142.68;55.75
17711;BME280;8975;57.718;12.134;2022-10-24T11:48:47;115940.22;;;-142.68;56.16
17711;BME280;8975;57.718;12.134;2022-10-24T11:52:21;115940.22;;;-142.68;56.04
17711;BME280;8975;57.718;12.134;2022-10-24T11:54:20;115940.22;;;-142.68;56.16
17711;BME280;8975;57.718;12.134;2022-10-24T11:56:50;115940.22;;;-142.68;56.05
17711;BME280;8975;57.718;12.134;2022-10-24T11:59:19;115940.22;;;-142.68;55.89
17711;BME280;8975;57.718;12.134;2022-10-24T12:15:36;115940.22;;;-142.68;55.77
17711;BME280;8975;57.718;12.134;2022-10-24T12:20:56;115940.22;;;-142.68;55.88
17711;BME280;8975;57.718;12.134;2022-10-24T12:23:26;115940.22;;;-142.68;55.96
17711;BME280;8975;57.718;12.134;2022-10-24T12:28:31;115940.22;;;-142.68;56.39
17711;BME280;8975;57.718;12.134;2022-10-24T12:33:43;115940.22;;;-142.68;56.06
17711;BME280;8975;57.718;12.134;2022-10-24T12:36:09;115940.22;;;-142.68;56.53
17711;BME280;8975;57.718;12.134;2022-10-24T12:41:06;115940.22;;;-142.68;56.73
17711;BME280;8975;57.718;12.134;2022-10-24T12:43:50;115940.22;;;-142.68;56.24
17711;BME280;8975;57.718;12.134;2022-10-24T12:51:44;115940.22;;;-142.68;56.03
17711;BME280;8975;57.718;12.134;2022-10-24T12:59:28;115940.22;;;-142.68;55.94
17711;BME280;8975;57.718;12.134;2022-10-24T13:05:06;115940.22;;;-142.68;56.07
17711;BME280;8975;57.718;12.134;2022-10-24T13:15:55;115940.22;;;-142.68;55.83
17711;BME280;8975;57.718;12.134;2022-10-24T13:21:15;115940.22;;;-142.68;56.51
17711;BME280;8975;57.718;12.134;2022-10-24T13:23:44;115940.22;;;-142.68;56.07
17711;BME280;8975;57.718;12.134;2022-10-24T13:29:09;115940.22;;;-142.68;56.12
17711;BME280;8975;57.718;12.134;2022-10-24T13:37:26;115940.22;;;-142.68;55.82
17711;BME280;8975;57.718;12.134;2022-10-24T13:42:33;115940.22;;;-142.68;55.62
17711;BME280;8975;57.718;12.134;2022-10-24T13:47:54;115940.22;;;-142.68;56.16
17711;BME280;8975;57.718;12.134;2022-10-24T13:50:31;115940.22;;;-142.68;56.08
17711;BME280;8975;57.718;12.134;2022-10-24T13:53:14;115940.22;;;-142.68;56.78
17711;BME280;8975;57.718;12.134;2022-10-24T13:55:45;115940.22;;;-142.68;56.69
17711;BME280;8975;57.718;12.134;2022-10-24T13:58:17;115940.22;;;-142.68;56.67
17711;BME280;8975;57.718;12.134;2022-10-24T14:00:54;115940.22;;;-142.68;56.55
17711;BME280;8975;57.718;12.134;2022-10-24T14:03:23;115940.22;;;-142.68;56.44
17711;BME280;8975;57.718;12.134;2022-10-24T14:06:01;115940.22;;;-142.68;55.94
17711;BME280;8975;57.718;12.134;2022-10-24T14:10:53;115940.22;;;-142.68;56.36
17711;BME280;8975;57.718;12.134;2022-10-24T14:13:20;115940.22;;;-142.68;56.41
17711;BME280;8975;57.718;12.134;2022-10-24T14:15:49;115940.22;;;-142.68;56.47
17711;BME280;8975;57.718;12.134;2022-10-24T14:18:15;115940.22;;;-142.68;57.00
17711;BME280;8975;57.718;12.134;2022-10-24T14:20:41;115940.22;;;-142.68;56.47
17711;BME280;8975;57.718;12.134;2022-10-24T14:23:25;115940.22;;;-142.68;56.98
17711;BME280;8975;57.718;12.134;2022-10-24T14:26:13;115940.22;;;-142.68;56.76
17711;BME280;8975;57.718;12.134;2022-10-24T14:28:53;115940.22;;;-142.68;56.38
17711;BME280;8975;57.718;12.134;2022-10-24T14:31:29;115940.22;;;-142.68;57.10
17711;BME280;8975;57.718;12.134;2022-10-24T14:33:57;115940.22;;;-142.68;57.38
17711;BME280;8975;57.718;12.134;2022-10-24T14:36:26;115940.22;;;-142.68;56.93
17711;BME280;8975;57.718;12.134;2022-10-24T14:38:54;115940.22;;;-142.68;57.29
17711;BME280;8975;57.718;12.134;2022-10-24T14:41:27;115940.22;;;-142.68;56.92
17711;BME280;8975;57.718;12.134;2022-10-24T14:43:54;115940.22;;;-142.68;56.95
17711;BME280;8975;57.718;12.134;2022-10-24T14:46:24;115940.22;;;-142.68;57.35
17711;BME280;8975;57.718;12.134;2022-10-24T14:48:52;115940.22;;;-142.68;56.95